createdAt,value
2018-12-25T00:01:28.320Z,22.1
2018-12-25T00:06:30.051Z,22.1
2018-12-25T00:11:31.490Z,22.1
2018-12-25T00:16:33.232Z,22.1
2018-12-25T00:21:35.263Z,22.1
2018-12-25T00:26:37.044Z,22.1
2018-12-25T00:36:49.689Z,22
2018-12-25T00:41:52.490Z,22
2018-12-25T00:46:54.349Z,22
2018-12-25T00:51:56.165Z,22
2018-12-25T00:56:59.186Z,22
2018-12-25T01:02:03.589Z,21.9
2018-12-25T01:07:05.134Z,21.9
2018-12-25T01:12:07.041Z,21.9
2018-12-25T01:17:08.525Z,21.9
2018-12-25T01:22:09.768Z,21.9
2018-12-25T01:27:12.054Z,21.9
2018-12-25T01:32:14.792Z,21.8
2018-12-25T01:42:26.303Z,21.8
2018-12-25T01:47:28.086Z,21.8
2018-12-25T01:52:29.951Z,21.8
2018-12-25T01:57:31.740Z,21.8
2018-12-25T02:02:34.669Z,21.8
2018-12-25T02:07:37.958Z,21.8
2018-12-25T02:12:39.890Z,21.9
2018-12-25T02:17:41.633Z,21.9
2018-12-25T02:22:43.851Z,21.9
2018-12-25T02:27:46.061Z,21.8
2018-12-25T02:32:47.867Z,21.8
2018-12-25T02:37:50.088Z,21.8
2018-12-25T02:48:02.543Z,21.8
2018-12-25T02:53:04.314Z,21.8
2018-12-25T02:58:05.490Z,21.8
2018-12-25T03:03:07.433Z,21.8
2018-12-25T03:08:10.496Z,21.8
2018-12-25T03:13:11.777Z,21.7
2018-12-25T03:18:13.592Z,21.7
2018-12-25T03:23:15.583Z,21.7
2018-12-25T03:28:17.569Z,21.6
2018-12-25T03:33:19.500Z,21.7
2018-12-25T03:38:20.852Z,21.7
2018-12-25T03:43:22.388Z,21.7
2018-12-25T03:48:25.210Z,21.7
2018-12-25T03:53:28.176Z,21.8
2018-12-25T03:58:31.064Z,21.8
2018-12-25T04:03:34.595Z,21.8
2018-12-25T04:08:36.538Z,21.8
2018-12-25T04:13:38.753Z,21.8
2018-12-25T04:18:40.303Z,21.8
2018-12-25T04:23:43.491Z,21.8
2018-12-25T04:28:45.372Z,21.8
2018-12-25T04:33:47.688Z,21.8
2018-12-25T04:38:49.468Z,21.8
2018-12-25T04:43:51.481Z,21.8
2018-12-25T04:48:53.906Z,21.7
2018-12-25T04:53:55.929Z,21.7
2018-12-25T04:58:57.325Z,21.7
2018-12-25T05:03:58.794Z,21.7
2018-12-25T05:09:00.725Z,21.7
2018-12-25T05:14:03.330Z,21.6
2018-12-25T05:19:05.295Z,21.7
2018-12-25T05:24:07.575Z,21.7
2018-12-25T05:34:09.249Z,21.7
2018-12-25T05:39:11.661Z,21.8
2018-12-25T05:44:14.933Z,21.8
2018-12-25T05:49:17.139Z,21.8
2018-12-25T05:54:19.923Z,21.8
2018-12-25T05:59:21.580Z,21.8
2018-12-25T06:04:23.010Z,21.8
2018-12-25T06:09:24.641Z,21.8
2018-12-25T06:14:27.893Z,21.8
2018-12-25T06:24:40.158Z,22
2018-12-25T06:29:41.653Z,22
2018-12-25T06:34:43.261Z,22
2018-12-25T06:44:51.516Z,22.1
2018-12-25T06:50:11.154Z,22.1
2018-12-25T06:55:02.237Z,22.1
2018-12-25T07:00:08.393Z,22.1
2018-12-25T07:05:22.645Z,22.1
2018-12-25T07:10:27.302Z,22.2
2018-12-25T07:15:45.072Z,22.2
2018-12-25T07:20:38.653Z,22.3
2018-12-25T07:25:42.343Z,22.3
2018-12-25T07:30:49.172Z,22.3
2018-12-25T07:35:47.136Z,22.3
2018-12-25T07:40:49.843Z,22.3
2018-12-25T07:45:51.905Z,22.4
2018-12-25T07:51:11.530Z,22.4
2018-12-25T07:55:57.155Z,22.4
2018-12-25T08:00:59.257Z,22.5
2018-12-25T08:06:16.552Z,22.5
2018-12-25T08:11:01.647Z,22.5
2018-12-25T08:16:02.969Z,22.6
2018-12-25T08:26:05.351Z,22.6
2018-12-25T08:31:09.441Z,22.7
2018-12-25T08:36:11.406Z,22.7
2018-12-25T08:46:22.852Z,22.8
2018-12-25T08:51:24.393Z,22.8
2018-12-25T08:56:26.943Z,22.9
2018-12-25T09:06:38.629Z,22.9
2018-12-25T09:11:39.930Z,22.9
2018-12-25T09:16:42.515Z,23
2018-12-25T09:21:48.327Z,23
2018-12-25T09:26:50.039Z,23
2018-12-25T09:37:01.904Z,23.1
2018-12-25T09:42:03.813Z,23.1
2018-12-25T09:47:06.415Z,23.2
2018-12-25T09:52:07.849Z,23.1
2018-12-25T09:57:09.754Z,23.2
2018-12-25T10:07:23.260Z,23.2
2018-12-25T12:27:49.464Z,21
2018-12-25T12:32:50.772Z,21.3
2018-12-25T12:37:52.104Z,21.6
2018-12-25T12:42:55.154Z,21.8
2018-12-25T12:47:59.231Z,22
2018-12-25T12:58:04.243Z,22.1
2018-12-25T13:03:05.512Z,22.2
2018-12-25T13:08:08.231Z,22.2
2018-12-25T13:13:09.701Z,22.3
2018-12-25T13:18:11.594Z,22.3
2018-12-25T13:23:13.551Z,22.3
2018-12-25T13:28:15.171Z,22.4
2018-12-25T13:33:17.879Z,22.5
2018-12-25T13:38:19.702Z,22.5
2018-12-25T13:48:30.978Z,22.6
2018-12-25T13:53:32.531Z,22.7
2018-12-25T14:03:34.660Z,22.8
2018-12-25T14:08:36.209Z,22.8
2018-12-25T14:13:38.419Z,22.9
2018-12-25T14:18:39.708Z,22.9
2018-12-25T14:23:41.789Z,23
2018-12-25T14:28:43.834Z,23
2018-12-25T14:33:45.396Z,23
2018-12-25T14:38:46.737Z,23.1
2018-12-25T14:43:48.604Z,23.1
2018-12-25T14:48:50.600Z,23.1
2018-12-25T14:53:52.667Z,23.2
2018-12-25T14:58:54.992Z,23.3
2018-12-25T15:03:56.881Z,23.4
2018-12-25T15:08:58.869Z,23.4
2018-12-25T15:14:02.775Z,23.5
2018-12-25T15:19:04.099Z,23.4
2018-12-25T15:24:06.014Z,23.3
2018-12-25T15:29:07.581Z,23.3
2018-12-25T15:34:09.853Z,23.2
2018-12-25T15:39:12.220Z,23.1
2018-12-25T15:44:14.315Z,23
2018-12-25T15:49:17.271Z,23
2018-12-25T15:54:19.172Z,23
2018-12-25T15:59:21.300Z,23.1
2018-12-25T16:04:23.802Z,23
2018-12-25T16:09:25.354Z,23
2018-12-25T16:14:27.273Z,23.1
2018-12-25T16:19:33.051Z,23.1
2018-12-25T16:24:38.279Z,23.1
2018-12-25T16:29:41.166Z,23.1
2018-12-25T16:34:43.059Z,23.2
2018-12-25T16:39:45.139Z,23.2
2018-12-25T16:44:46.733Z,23.2
2018-12-25T16:49:48.191Z,23.2
2018-12-25T16:54:50.584Z,23.2
2018-12-25T16:59:51.806Z,23.1
2018-12-25T17:04:53.724Z,22.9
2018-12-25T17:09:53.968Z,22.6
2018-12-25T17:14:55.457Z,22.4
2018-12-25T17:19:56.986Z,22.3
2018-12-25T17:25:02.269Z,22.1
2018-12-25T17:35:04.891Z,22.2
2018-12-25T17:40:06.506Z,22.2
2018-12-25T17:45:08.732Z,22.3
2018-12-25T17:50:11.059Z,22.3
2018-12-25T17:55:12.950Z,22.4
2018-12-25T18:05:15.558Z,22.6
2018-12-25T18:10:17.426Z,22.7
2018-12-25T18:15:20.083Z,22.7
2018-12-25T18:20:22.642Z,22.8
2018-12-25T18:25:24.816Z,22.9
2018-12-25T18:30:26.484Z,22.9
2018-12-25T18:35:28.554Z,23
2018-12-25T18:40:30.763Z,23
2018-12-25T18:50:36.176Z,23.1
2018-12-25T18:55:37.680Z,23.2
2018-12-25T19:00:40.696Z,23.2
2018-12-25T19:05:42.296Z,23.3
2018-12-25T19:10:44.304Z,23.4
2018-12-25T19:15:46.857Z,23.4
2018-12-25T19:20:50.009Z,23.6
2018-12-25T19:25:52.128Z,23.4
2018-12-25T19:30:54.003Z,23.2
2018-12-25T19:35:56.118Z,23.2
2018-12-25T19:41:00.495Z,23.2
2018-12-25T19:46:04.755Z,23.1
2018-12-25T19:51:06.305Z,23.1
2018-12-25T19:56:08.216Z,23.2
2018-12-25T20:01:10.520Z,23.1
2018-12-25T20:06:12.304Z,23.1
2018-12-25T20:11:14.411Z,23
2018-12-25T20:16:15.797Z,23
2018-12-25T20:21:17.675Z,22.9
2018-12-25T20:26:19.465Z,22.9
2018-12-25T20:31:21.338Z,22.9
2018-12-25T20:36:22.997Z,22.9
2018-12-25T20:41:24.834Z,22.9
2018-12-25T20:46:26.315Z,22.9
2018-12-25T20:51:27.665Z,23
2018-12-25T21:01:41.456Z,23
2018-12-25T21:11:43.408Z,23
2018-12-25T21:16:46.847Z,23
2018-12-25T21:21:48.741Z,23.1
2018-12-25T21:26:50.703Z,23.1
2018-12-25T21:31:52.899Z,23.1
2018-12-25T21:36:55.624Z,23.1
2018-12-25T21:41:56.934Z,23.1
2018-12-25T21:46:59.490Z,23
2018-12-25T21:57:00.922Z,23
2018-12-25T22:02:02.725Z,22.9
2018-12-25T22:12:09.109Z,22.8
2018-12-25T22:17:10.858Z,22.8
2018-12-25T22:22:12.218Z,22.8
2018-12-25T22:27:13.637Z,22.7
2018-12-25T22:32:15.772Z,22.6
2018-12-25T22:37:18.333Z,22.6
2018-12-25T22:42:19.591Z,22.6
2018-12-25T22:47:20.838Z,22.5
2018-12-25T22:52:22.176Z,22.4
2018-12-25T22:57:24.583Z,22.4
2018-12-25T23:02:25.799Z,22.3
2018-12-25T23:07:27.454Z,22.3
2018-12-25T23:12:29.514Z,22.3
2018-12-25T23:17:32.090Z,22.2
2018-12-25T23:22:33.800Z,22.1
2018-12-25T23:27:35.870Z,22.1
2018-12-25T23:32:36.988Z,22
2018-12-25T23:37:39.340Z,22
2018-12-25T23:42:41.376Z,21.9
2018-12-25T23:47:42.955Z,21.8
2018-12-25T23:52:43.225Z,21.8
2018-12-25T23:57:45.506Z,21.8
